createdAt,value
2022-10-18T00:00:07.810Z,18.80
2022-10-18T00:02:55.777Z,18.75
2022-10-18T00:05:41.751Z,18.87
2022-10-18T00:08:27.483Z,19.14
2022-10-18T00:11:13.361Z,19.03
2022-10-18T00:13:59.294Z,18.87
2022-10-18T00:16:45.014Z,18.96
2022-10-18T00:19:30.826Z,18.60
2022-10-18T00:22:16.728Z,19.02
2022-10-18T00:25:02.550Z,19.34
2022-10-18T00:27:48.576Z,19.50
2022-10-18T00:30:34.489Z,19.65
2022-10-18T00:33:20.314Z,19.13
2022-10-18T00:36:06.283Z,19.54
2022-10-18T00:38:52.114Z,19.51
2022-10-18T00:41:38.096Z,19.55
2022-10-18T00:44:23.887Z,19.30
2022-10-18T00:47:09.713Z,19.46
2022-10-18T00:49:55.653Z,19.22
2022-10-18T00:52:41.427Z,18.77
2022-10-18T00:55:29.212Z,18.93
2022-10-18T00:58:15.213Z,18.80
2022-10-18T01:01:00.945Z,18.65
2022-10-18T01:03:48.872Z,18.91
2022-10-18T01:06:34.797Z,18.86
2022-10-18T01:09:20.633Z,18.89
2022-10-18T01:12:06.491Z,18.91
2022-10-18T01:14:52.398Z,18.66
2022-10-18T01:17:38.318Z,18.73
2022-10-18T01:20:24.230Z,18.47
2022-10-18T01:23:10.037Z,18.88
2022-10-18T01:25:55.803Z,18.68
2022-10-18T01:28:41.748Z,18.15
2022-10-18T01:31:27.632Z,18.07
2022-10-18T01:34:13.563Z,18.78
2022-10-18T01:36:59.253Z,18.51
2022-10-18T01:39:45.112Z,18.68
2022-10-18T01:42:33.003Z,18.70
2022-10-18T01:45:18.813Z,18.28
2022-10-18T01:48:04.683Z,18.10
2022-10-18T01:50:50.501Z,17.83
2022-10-18T01:53:36.223Z,17.81
2022-10-18T01:56:22.132Z,17.72
2022-10-18T01:59:08.022Z,17.55
2022-10-18T02:01:53.816Z,17.81
2022-10-18T02:04:39.613Z,17.66
2022-10-18T02:07:25.445Z,17.29
2022-10-18T02:10:11.321Z,17.31
2022-10-18T02:12:57.436Z,17.64
2022-10-18T02:15:43.294Z,17.25
2022-10-18T02:18:29.162Z,17.44
2022-10-18T02:21:15.047Z,17.35
2022-10-18T02:24:00.841Z,17.33
2022-10-18T02:26:46.713Z,17.23
2022-10-18T02:29:32.396Z,17.51
2022-10-18T02:32:18.207Z,17.54
2022-10-18T02:35:04.062Z,17.63
2022-10-18T02:37:49.797Z,17.61
2022-10-18T02:40:35.667Z,17.57
2022-10-18T02:43:21.447Z,17.64
2022-10-18T02:46:07.291Z,17.98
2022-10-18T02:48:53.287Z,17.81
2022-10-18T02:51:38.909Z,17.89
2022-10-18T02:54:24.917Z,18.26
2022-10-18T02:57:10.657Z,18.17
2022-10-18T02:59:56.436Z,18.44
2022-10-18T03:02:42.236Z,18.47
2022-10-18T03:05:28.053Z,18.62
2022-10-18T03:08:14.007Z,18.64
2022-10-18T03:11:00.381Z,18.19
2022-10-18T03:13:46.218Z,18.38
2022-10-18T03:16:32.210Z,18.10
2022-10-18T03:19:18.016Z,18.31
2022-10-18T03:22:04.195Z,17.90
2022-10-18T03:24:50.388Z,17.53
2022-10-18T03:27:36.203Z,17.28
2022-10-18T03:30:22.246Z,17.57
2022-10-18T03:33:08.159Z,17.76
2022-10-18T03:35:54.049Z,17.69
2022-10-18T03:38:40.029Z,17.94
2022-10-18T03:41:25.812Z,17.71
2022-10-18T03:44:13.661Z,17.78
2022-10-18T03:46:59.463Z,17.61
2022-10-18T03:49:45.153Z,17.64
2022-10-18T03:52:31.438Z,17.57
2022-10-18T03:55:17.511Z,17.49
2022-10-18T03:58:03.312Z,17.55
2022-10-18T04:00:51.145Z,17.29
2022-10-18T04:03:37.115Z,17.91
2022-10-18T04:06:24.882Z,17.94
2022-10-18T04:09:10.787Z,18.07
2022-10-18T04:11:56.724Z,18.36
2022-10-18T04:14:42.515Z,18.67
2022-10-18T04:17:28.359Z,18.99
2022-10-18T04:20:14.149Z,19.01
2022-10-18T04:23:00.092Z,19.18
2022-10-18T04:25:46.055Z,18.90
2022-10-18T04:28:31.834Z,18.67
2022-10-18T04:31:17.816Z,18.83
2022-10-18T04:34:03.631Z,18.67
2022-10-18T04:36:49.504Z,18.77
2022-10-18T04:39:35.439Z,18.81
2022-10-18T04:42:21.195Z,18.70
2022-10-18T04:45:07.098Z,18.68
2022-10-18T04:47:53.091Z,18.43
2022-10-18T04:50:38.913Z,18.39
2022-10-18T04:53:24.749Z,18.52
2022-10-18T04:56:10.560Z,18.64
2022-10-18T04:58:56.308Z,18.48
2022-10-18T05:01:42.356Z,18.60
2022-10-18T05:04:28.530Z,18.23
2022-10-18T05:07:14.360Z,18.13
2022-10-18T05:10:00.237Z,18.09
2022-10-18T05:12:46.215Z,17.93
2022-10-18T05:15:32.188Z,17.55
2022-10-18T05:18:18.142Z,17.92
2022-10-18T05:21:03.941Z,17.75
2022-10-18T05:23:49.764Z,17.98
2022-10-18T05:26:35.461Z,17.73
2022-10-18T05:29:21.341Z,18.09
2022-10-18T05:32:07.575Z,17.89
2022-10-18T05:34:53.404Z,17.73
2022-10-18T05:37:39.371Z,17.66
2022-10-18T05:40:25.132Z,17.47
2022-10-18T05:43:10.975Z,17.29
2022-10-18T05:45:56.839Z,17.60
2022-10-18T05:48:42.646Z,17.43
2022-10-18T05:51:28.377Z,17.49
2022-10-18T05:54:14.178Z,17.43
2022-10-18T05:57:00.084Z,17.64
2022-10-18T05:59:46.035Z,17.79
2022-10-18T06:02:31.897Z,17.67
2022-10-18T06:05:18.045Z,18.04
2022-10-18T06:08:06.527Z,17.90
2022-10-18T06:10:56.230Z,18.23
2022-10-18T06:13:42.225Z,18.47
2022-10-18T06:16:32.270Z,18.82
2022-10-18T06:19:18.937Z,18.78
2022-10-18T06:22:04.677Z,19.09
2022-10-18T06:24:55.063Z,19.24
2022-10-18T06:27:43.295Z,19.23
2022-10-18T06:30:29.251Z,19.58
2022-10-18T06:33:15.077Z,19.65
2022-10-18T06:36:00.987Z,19.72
2022-10-18T06:38:46.745Z,19.81
2022-10-18T06:41:32.527Z,19.45
2022-10-18T06:44:18.380Z,19.88
2022-10-18T06:47:04.089Z,19.90
2022-10-18T06:49:50.070Z,18.93
2022-10-18T06:52:37.933Z,18.90
2022-10-18T06:55:23.594Z,18.91
2022-10-18T06:58:09.414Z,18.69
2022-10-18T07:00:55.200Z,18.39
2022-10-18T07:03:41.013Z,18.57
2022-10-18T07:06:26.967Z,18.53
2022-10-18T07:09:14.769Z,18.50
2022-10-18T07:12:00.588Z,18.76
2022-10-18T07:14:46.412Z,18.74
2022-10-18T07:17:32.360Z,19.00
2022-10-18T07:20:18.654Z,18.63
2022-10-18T07:23:04.456Z,18.84
2022-10-18T07:25:50.218Z,19.06
2022-10-18T07:28:36.101Z,19.30
2022-10-18T07:31:21.888Z,19.05
2022-10-18T07:34:07.745Z,19.24
2022-10-18T07:36:53.765Z,19.03
2022-10-18T07:39:39.600Z,18.93
2022-10-18T07:42:25.325Z,18.46
2022-10-18T07:45:11.065Z,18.71
2022-10-18T07:47:56.864Z,18.14
2022-10-18T07:50:42.725Z,18.33
2022-10-18T07:53:28.435Z,17.59
2022-10-18T07:56:14.289Z,17.97
2022-10-18T07:59:00.132Z,18.21
2022-10-18T08:01:45.953Z,18.38
2022-10-18T08:04:31.836Z,18.16
2022-10-18T08:07:17.701Z,17.92
2022-10-18T08:10:03.639Z,18.33
2022-10-18T08:12:49.660Z,18.10
2022-10-18T08:15:35.339Z,18.54
2022-10-18T08:18:21.272Z,18.65
2022-10-18T08:21:07.258Z,19.04
2022-10-18T08:23:53.070Z,18.29
2022-10-18T08:26:38.923Z,18.27
2022-10-18T08:29:27.947Z,18.17
2022-10-18T08:32:15.513Z,18.68
2022-10-18T08:35:03.247Z,18.57
2022-10-18T08:37:51.589Z,18.31
2022-10-18T08:40:37.418Z,18.46
2022-10-18T08:43:23.421Z,18.43
2022-10-18T08:46:09.400Z,18.47
2022-10-18T08:48:55.301Z,18.92
2022-10-18T08:51:41.015Z,18.54
2022-10-18T08:54:27.641Z,18.59
2022-10-18T08:57:13.514Z,18.69
2022-10-18T08:59:59.456Z,19.40
2022-10-18T09:02:45.243Z,19.99
2022-10-18T09:05:31.087Z,20.34
2022-10-18T09:08:16.921Z,20.72
2022-10-18T09:11:02.801Z,21.18
2022-10-18T09:13:48.564Z,21.49
2022-10-18T09:16:34.341Z,21.86
2022-10-18T09:19:20.148Z,22.12
2022-10-18T09:22:07.471Z,22.39
2022-10-18T09:24:55.507Z,22.74
2022-10-18T09:27:41.268Z,22.95
2022-10-18T09:30:27.172Z,23.18
2022-10-18T09:33:12.974Z,23.26
2022-10-18T09:35:59.095Z,23.50
2022-10-18T09:38:46.952Z,23.62
2022-10-18T09:41:32.901Z,23.55
2022-10-18T09:44:18.763Z,23.76
2022-10-18T09:47:04.949Z,23.97
2022-10-18T09:49:50.819Z,24.18
2022-10-18T09:52:36.789Z,24.22
2022-10-18T09:55:22.710Z,24.39
2022-10-18T09:58:08.559Z,24.35
2022-10-18T10:00:54.533Z,24.39
2022-10-18T10:03:40.322Z,24.34
2022-10-18T10:06:26.142Z,24.24
2022-10-18T10:09:12.198Z,24.22
2022-10-18T10:11:58.084Z,24.33
2022-10-18T10:14:43.939Z,24.36
2022-10-18T10:17:30.264Z,24.73
2022-10-18T10:20:16.744Z,24.88
2022-10-18T10:23:02.569Z,24.79
2022-10-18T10:25:48.406Z,24.42
2022-10-18T10:28:34.537Z,24.86
2022-10-18T10:31:20.503Z,24.90
2022-10-18T10:34:06.330Z,24.95
2022-10-18T10:36:52.184Z,24.82
2022-10-18T10:39:38.072Z,24.86
2022-10-18T10:42:23.943Z,24.74
2022-10-18T10:45:09.877Z,24.83
2022-10-18T10:47:55.619Z,25.09
2022-10-18T10:50:41.576Z,25.32
2022-10-18T10:53:27.669Z,25.47
2022-10-18T10:56:16.108Z,25.65
2022-10-18T10:59:02.323Z,25.86
2022-10-18T11:01:48.327Z,25.90
2022-10-18T11:04:34.101Z,26.01
2022-10-18T11:07:20.007Z,26.19
2022-10-18T11:10:05.781Z,26.40
2022-10-18T11:12:51.673Z,26.55
2022-10-18T11:15:37.517Z,26.65
2022-10-18T11:18:25.407Z,26.83
2022-10-18T11:21:11.340Z,27.03
2022-10-18T11:23:57.276Z,27.08
2022-10-18T11:26:45.522Z,27.23
2022-10-18T11:29:34.882Z,27.31
2022-10-18T11:32:20.852Z,27.42
2022-10-18T11:35:06.760Z,27.52
2022-10-18T11:37:52.662Z,27.59
2022-10-18T11:40:38.733Z,27.79
2022-10-18T11:43:30.093Z,27.95
2022-10-18T11:46:20.579Z,28.09
2022-10-18T11:49:06.376Z,28.22
2022-10-18T11:52:07.182Z,28.33
2022-10-18T11:54:53.938Z,28.41
2022-10-18T11:57:39.827Z,28.52
2022-10-18T12:03:16.587Z,28.63
2022-10-18T12:06:02.400Z,28.72
2022-10-18T12:08:48.250Z,28.77
2022-10-18T12:11:34.062Z,28.90
2022-10-18T12:14:19.861Z,29.00
2022-10-18T12:17:39.619Z,29.04
2022-10-18T12:20:12.233Z,29.18
2022-10-18T12:22:58.030Z,29.30
2022-10-18T12:25:43.889Z,29.44
2022-10-18T12:28:29.820Z,29.53
2022-10-18T12:31:15.802Z,29.63
2022-10-18T12:34:01.724Z,29.75
2022-10-18T12:36:47.549Z,29.89
2022-10-18T12:39:43.470Z,29.96
2022-10-18T12:42:36.460Z,30.05
2022-10-18T12:45:22.372Z,30.15
2022-10-18T12:48:08.287Z,30.19
2022-10-18T12:50:54.266Z,30.17
2022-10-18T12:53:40.048Z,30.22
2022-10-18T12:56:25.858Z,30.30
2022-10-18T12:59:11.620Z,30.37
2022-10-18T13:01:57.554Z,30.41
2022-10-18T13:04:43.481Z,30.44
2022-10-18T13:07:29.378Z,30.51
2022-10-18T13:10:15.657Z,30.53
2022-10-18T13:13:12.188Z,30.53
2022-10-18T13:16:04.919Z,30.56
2022-10-18T13:18:50.874Z,30.62
2022-10-18T13:21:36.696Z,30.65
2022-10-18T13:24:22.479Z,30.69
2022-10-18T13:30:14.531Z,30.78
2022-10-18T13:33:00.327Z,30.83
2022-10-18T13:35:46.215Z,30.85
2022-10-18T13:38:31.960Z,30.90
2022-10-18T13:41:17.923Z,30.94
2022-10-18T13:44:03.975Z,30.95
2022-10-18T13:46:49.825Z,30.97
2022-10-18T13:49:35.682Z,30.96
2022-10-18T13:52:21.330Z,30.98
2022-10-18T13:55:07.741Z,30.95
2022-10-18T13:57:53.600Z,30.98
2022-10-18T14:00:44.845Z,31.06
2022-10-18T14:06:41.248Z,31.16
2022-10-18T14:12:33.596Z,31.34
2022-10-18T14:15:19.883Z,31.40
2022-10-18T14:18:05.735Z,31.49
2022-10-18T14:21:12.247Z,31.55
2022-10-18T14:23:57.585Z,31.62
2022-10-18T14:26:43.304Z,31.65
2022-10-18T14:29:29.377Z,31.69
2022-10-18T14:32:15.379Z,31.71
2022-10-18T14:35:30.673Z,31.74
2022-10-18T14:38:07.108Z,31.73
2022-10-18T14:40:53.231Z,31.69
2022-10-18T14:43:39.389Z,31.69
2022-10-18T14:46:25.156Z,31.69
2022-10-18T14:49:10.981Z,31.72
2022-10-18T14:51:56.879Z,31.70
2022-10-18T14:54:42.732Z,31.66
2022-10-18T14:57:28.704Z,31.63
2022-10-18T15:00:14.601Z,31.58
2022-10-18T15:03:00.422Z,31.53
2022-10-18T15:05:46.160Z,31.48
2022-10-18T15:08:32.097Z,31.41
2022-10-18T15:11:18.108Z,31.36
2022-10-18T15:14:03.948Z,31.31
2022-10-18T15:16:49.930Z,31.24
2022-10-18T15:19:35.887Z,31.18
2022-10-18T15:22:32.175Z,31.11
2022-10-18T15:25:18.715Z,31.06
2022-10-18T15:28:04.557Z,30.98
2022-10-18T15:30:50.521Z,30.91
2022-10-18T15:33:36.277Z,30.83
2022-10-18T15:36:22.245Z,30.76
2022-10-18T15:39:08.283Z,30.68
2022-10-18T15:41:54.137Z,30.62
2022-10-18T15:44:39.994Z,30.51
2022-10-18T15:47:25.840Z,30.43
2022-10-18T15:50:11.615Z,30.36
2022-10-18T15:52:57.493Z,30.25
2022-10-18T15:55:43.341Z,30.15
2022-10-18T15:58:29.328Z,30.04
2022-10-18T16:01:15.230Z,29.94
2022-10-18T16:04:01.243Z,29.83
2022-10-18T16:06:47.159Z,29.72
2022-10-18T16:09:32.890Z,29.58
2022-10-18T16:12:18.717Z,29.45
2022-10-18T16:15:04.595Z,29.30
2022-10-18T16:17:50.300Z,29.16
2022-10-18T16:20:36.347Z,29.00
2022-10-18T16:23:22.070Z,28.83
2022-10-18T16:26:07.895Z,28.68
2022-10-18T16:28:53.825Z,28.50
2022-10-18T16:31:39.709Z,28.33
2022-10-18T16:34:25.623Z,28.14
2022-10-18T16:37:11.649Z,27.96
2022-10-18T16:39:57.591Z,27.77
2022-10-18T16:42:43.688Z,27.59
2022-10-18T16:45:29.790Z,27.42
2022-10-18T16:48:15.656Z,27.26
2022-10-18T16:51:01.445Z,27.08
2022-10-18T16:53:47.383Z,26.95
2022-10-18T16:56:33.254Z,26.84
2022-10-18T16:59:18.915Z,26.72
2022-10-18T17:02:04.851Z,26.60
2022-10-18T17:04:51.121Z,26.48
2022-10-18T17:07:36.906Z,26.34
2022-10-18T17:10:22.826Z,26.23
2022-10-18T17:13:08.807Z,26.10
2022-10-18T17:15:54.780Z,25.96
2022-10-18T17:18:42.569Z,25.84
2022-10-18T17:21:28.580Z,25.70
2022-10-18T17:24:14.395Z,25.57
2022-10-18T17:27:00.132Z,25.48
2022-10-18T17:29:46.095Z,25.35
2022-10-18T17:32:32.096Z,25.23
2022-10-18T17:35:18.032Z,25.10
2022-10-18T17:38:03.968Z,24.98
2022-10-18T17:40:50.066Z,24.86
2022-10-18T17:43:35.958Z,24.77
2022-10-18T17:46:21.768Z,24.69
2022-10-18T17:49:07.672Z,24.61
2022-10-18T17:51:53.491Z,24.54
2022-10-18T17:54:39.358Z,24.45
2022-10-18T17:57:25.365Z,24.35
2022-10-18T18:00:11.245Z,24.23
2022-10-18T18:02:57.131Z,24.13
2022-10-18T18:05:43.056Z,24.04
2022-10-18T18:08:28.942Z,23.97
2022-10-18T18:11:14.903Z,23.91
2022-10-18T18:14:00.630Z,23.88
2022-10-18T18:16:48.611Z,23.81
2022-10-18T18:19:34.555Z,23.75
2022-10-18T18:22:20.427Z,23.68
2022-10-18T18:25:06.371Z,23.63
2022-10-18T18:27:52.191Z,23.58
2022-10-18T18:30:37.970Z,23.51
2022-10-18T18:33:23.976Z,23.47
2022-10-18T18:36:09.639Z,23.40
2022-10-18T18:38:57.714Z,23.31
2022-10-18T18:41:43.924Z,23.25
2022-10-18T18:44:29.713Z,23.21
2022-10-18T18:47:15.560Z,23.13
2022-10-18T18:50:01.563Z,23.02
2022-10-18T18:52:47.274Z,22.93
2022-10-18T18:55:33.096Z,22.91
2022-10-18T18:58:18.911Z,22.88
2022-10-18T19:01:04.715Z,22.80
2022-10-18T19:03:50.611Z,22.79
2022-10-18T19:06:36.382Z,22.72
2022-10-18T19:09:22.217Z,22.72
2022-10-18T19:12:08.122Z,22.68
2022-10-18T19:14:53.833Z,22.67
2022-10-18T19:17:39.844Z,22.67
2022-10-18T19:20:25.593Z,22.65
2022-10-18T19:23:11.407Z,22.63
2022-10-18T19:25:57.259Z,22.59
2022-10-18T19:28:43.140Z,22.55
2022-10-18T19:31:29.017Z,22.50
2022-10-18T19:34:14.855Z,22.48
2022-10-18T19:37:00.819Z,22.47
2022-10-18T19:42:32.319Z,22.40
2022-10-18T19:45:18.241Z,22.39
2022-10-18T19:48:04.193Z,22.36
2022-10-18T19:50:50.082Z,22.36
2022-10-18T19:53:35.896Z,22.34
2022-10-18T19:56:21.876Z,22.32
2022-10-18T19:59:07.723Z,22.31
2022-10-18T20:01:53.723Z,22.30
2022-10-18T20:04:39.540Z,22.26
2022-10-18T20:07:25.373Z,22.26
2022-10-18T20:10:11.196Z,22.24
2022-10-18T20:12:56.981Z,22.24
2022-10-18T20:15:43.025Z,22.21
2022-10-18T20:18:28.734Z,22.21
2022-10-18T20:21:14.725Z,22.19
2022-10-18T20:24:00.639Z,22.18
2022-10-18T20:26:46.433Z,22.16
2022-10-18T20:29:32.314Z,22.14
2022-10-18T20:32:18.137Z,22.15
2022-10-18T20:35:03.994Z,22.13
2022-10-18T20:37:51.767Z,22.11
2022-10-18T20:40:37.668Z,22.11
2022-10-18T20:43:23.642Z,22.09
2022-10-18T20:46:09.761Z,22.09
2022-10-18T20:48:55.541Z,22.08
2022-10-18T20:51:41.597Z,22.07
2022-10-18T20:54:29.540Z,22.07
2022-10-18T20:57:17.363Z,22.09
2022-10-18T21:00:03.284Z,22.07
2022-10-18T21:02:49.207Z,22.06
2022-10-18T21:05:34.941Z,22.05
2022-10-18T21:08:20.763Z,22.05
2022-10-18T21:11:06.667Z,22.05
2022-10-18T21:13:52.601Z,22.06
2022-10-18T21:16:38.462Z,22.05
2022-10-18T21:19:24.155Z,22.05
2022-10-18T21:22:10.103Z,22.07
2022-10-18T21:24:55.861Z,22.05
2022-10-18T21:27:41.689Z,22.04
2022-10-18T21:30:27.670Z,22.02
2022-10-18T21:33:13.437Z,22.02
2022-10-18T21:35:59.463Z,22.02
2022-10-18T21:38:45.372Z,22.01
2022-10-18T21:41:31.176Z,21.99
2022-10-18T21:44:16.998Z,21.98
2022-10-18T21:47:02.777Z,21.95
2022-10-18T21:49:48.653Z,21.92
2022-10-18T21:52:34.893Z,21.90
2022-10-18T21:55:20.721Z,21.88
2022-10-18T21:58:06.666Z,21.83
2022-10-18T22:00:52.665Z,21.79
2022-10-18T22:03:38.571Z,21.73
2022-10-18T22:06:24.498Z,21.69
2022-10-18T22:09:10.323Z,21.66
2022-10-18T22:11:58.136Z,21.61
2022-10-18T22:14:44.026Z,21.56
2022-10-18T22:17:30.018Z,21.52
2022-10-18T22:20:16.361Z,21.50
2022-10-18T22:23:02.121Z,21.48
2022-10-18T22:25:47.877Z,21.45
2022-10-18T22:28:33.802Z,21.43
2022-10-18T22:31:19.693Z,21.40
2022-10-18T22:34:05.546Z,21.38
2022-10-18T22:36:51.368Z,21.35
2022-10-18T22:39:37.235Z,21.34
2022-10-18T22:42:23.323Z,21.32
2022-10-18T22:45:09.283Z,21.27
2022-10-18T22:47:57.145Z,21.26
2022-10-18T22:50:43.029Z,21.25
2022-10-18T22:53:28.855Z,21.22
2022-10-18T22:56:14.677Z,21.19
2022-10-18T22:59:00.706Z,21.17
2022-10-18T23:01:48.658Z,21.14
2022-10-18T23:04:34.351Z,21.10
2022-10-18T23:07:21.232Z,21.10
2022-10-18T23:10:06.989Z,21.07
2022-10-18T23:12:52.883Z,21.08
2022-10-18T23:15:38.707Z,21.06
2022-10-18T23:18:24.396Z,21.07
2022-10-18T23:21:10.375Z,21.07
2022-10-18T23:23:56.229Z,21.03
2022-10-18T23:26:41.988Z,20.99
2022-10-18T23:29:27.780Z,20.96
2022-10-18T23:32:13.494Z,20.94
2022-10-18T23:34:59.351Z,20.93
2022-10-18T23:37:45.210Z,20.89
2022-10-18T23:40:30.924Z,20.87
2022-10-18T23:43:16.806Z,20.85
2022-10-18T23:46:02.432Z,20.84
2022-10-18T23:48:48.113Z,20.81
2022-10-18T23:51:33.881Z,20.79
2022-10-18T23:54:19.677Z,20.77
2022-10-18T23:57:05.485Z,20.76
2022-10-18T23:59:51.223Z,20.75
